Strona główna
METAR-TAF:

METAR-TAF

Lotnisko :

Greenbrier Valley Airport

Lewisburg, Wirginia Zachodnia, Stany Zjednoczone

Szerokość geograficzna: 37-52N, Długość geograficzna: 080-24W, wysokość: 702 m

Aktualna obserwacja pogody

Raport powstał 20 minut temu, godzina 18:55 UTC
Wiatr 7 kt od zachodnio-południowy zachód
Temperatura -4°C
Wilgotność 54%
Ciśnienie 1026 hPa
Widzialność: 16.1 km
bezchmurnie

METAR: KLWB 201855Z 24007KT 10SM SKC M04/M12 A3029

czas: 14:15 (19:15 UTC)

Prognoza

Raport powstał 1 godzina i 35 minut temu, godzina 17:40 UTC
Prognoza ważna od 20 godzina 18 UTC do 21 godzina 18 UTC
Wiatr 5 kt od północno-północny wschód
Widzialność: 10 km
bezchmurnie
Od 21 godzina 0000 UTC
Wiatr 6 kt od północ
Widzialność: 10 km
Rozproszone chmury na wysokości 25000 ft

TAF: KLWB 201740Z 2018/2118 02005KT P6SM SKC FM210000 35006KT P6SM SCT250

Obserwacja i prognoza pogody dla ponad 4000 lotnisk (raport METAR i TAF).

Dostępne stacje oznaczono żółtymi i czerwonymi punktami na mapie.

Najedź kursorem aby zobaczyć nazwę stacji.

Kliknij aby zobaczyć obserwacje i prognozy pogody.

Aby zmienić mapę: kliknij na zielony przycisk z czarnym krzyżykiem, aby powiększyć; na zielony przycisk z myślnikiem, aby pomniejszyć; na zielone strzałki, aby przejść do map sąsiednich.


METAR-TAF: